Flag for Malta

Past Weather in Valletta, Malta — July 2016

Currently: 61 °F. Passing clouds. (Weather station: Luqa, Malta). See more current weather

July 2016 Weather in Valletta — Graph

°F

High & Low Weather Summary for July 2016

 TemperatureHumidityPressure
High93 °F (Jul 9, 3:15 pm)100% (Jul 2, 1:15 am)30.12 "Hg (Jul 2, 1:15 am)
Low68 °F (Jul 17, 3:15 am)19% (Jul 9, 5:15 pm)29.89 "Hg (Jul 12, 4:45 pm)
Average79 °F61%29.99 "Hg
* Reported Jul 1 12:15 am — Jul 31 11:45 pm, Valletta. Weather by CustomWeather, © 2020

Note: Actual official high and low records may vary slightly from our data, if they occured in-between our weather recording intervals... More about our weather records

Valletta Weather History for July 1, 2016

Scroll right to see more
 ConditionsComfort  
Time TempWeatherWind HumidityBarometerVisibility
12:15 am
Fri, Jul 1
73 °FClear.8 mph89%30.04 "Hg10 mi
12:45 am72 °FClear.7 mph94%30.04 "Hg10 mi
1:15 am73 °FClear.7 mph89%30.04 "Hg10 mi
2:15 am73 °FClear.7 mph89%30.04 "Hg10 mi
2:45 am72 °FClear.3 mph94%30.04 "Hg10 mi
3:15 am72 °FClear.10 mph94%30.01 "Hg10 mi
3:45 am73 °FClear.7 mph89%30.01 "Hg10 mi
4:15 am72 °FClear.9 mph94%30.01 "Hg10 mi
4:45 am73 °FClear.10 mph89%30.01 "Hg10 mi
5:15 am72 °FClear.8 mph88%30.01 "Hg10 mi
5:45 am73 °FClear.9 mph83%30.01 "Hg10 mi
6:15 am72 °FClear.6 mph88%30.01 "Hg10 mi
6:45 am72 °FClear.6 mph94%30.04 "Hg10 mi
7:15 am73 °FSunny.10 mph89%30.01 "Hg10 mi
7:45 am75 °FPassing clouds.7 mph83%30.04 "HgN/A
8:15 am75 °FPassing clouds.10 mph83%30.04 "HgN/A
8:45 am77 °FPassing clouds.17 mph74%30.04 "HgN/A
9:15 am75 °FPassing clouds.18 mph83%30.01 "HgN/A
9:45 am77 °FPassing clouds.7 mph79%30.07 "HgN/A
10:15 am81 °FPassing clouds.12 mph66%30.04 "HgN/A
10:45 am81 °FPassing clouds.10 mph62%30.04 "HgN/A
11:15 am81 °FPassing clouds.14 mph66%30.04 "HgN/A
11:45 am82 °FSunny.13 mph62%30.04 "Hg10 mi
12:15 pm82 °FSunny.16 mph62%30.04 "Hg10 mi
12:45 pm81 °FPassing clouds.14 mph62%30.07 "HgN/A
1:15 pm81 °FPassing clouds.10 mph62%30.07 "HgN/A
1:45 pm82 °FPassing clouds.14 mph58%30.04 "HgN/A
2:15 pm82 °FSunny.17 mph62%30.04 "Hg10 mi
2:45 pm79 °FSprinkles. Clear.16 mph70%30.01 "HgN/A
3:15 pm79 °FSunny.17 mph70%30.01 "Hg10 mi
3:45 pm82 °FSunny.17 mph62%30.01 "Hg10 mi
4:15 pm82 °FSunny.15 mph58%30.01 "Hg10 mi
4:45 pm82 °FSunny.15 mph62%29.98 "Hg10 mi
5:15 pm81 °FSunny.14 mph66%30.01 "Hg10 mi
5:45 pm81 °FSunny.14 mph66%30.01 "Hg10 mi
6:15 pm79 °FSunny.14 mph74%30.01 "Hg10 mi
6:45 pm77 °FSunny.15 mph79%30.01 "Hg10 mi
7:15 pm77 °FPassing clouds.7 mph79%30.01 "HgN/A
7:45 pm77 °FSunny.8 mph79%30.01 "Hg10 mi
8:15 pm75 °FSunny.8 mph83%30.01 "Hg10 mi
8:45 pm75 °FPassing clouds.10 mph83%30.01 "HgN/A
9:15 pm75 °FSunny.9 mph83%30.01 "Hg10 mi
9:45 pm73 °FPassing clouds.8 mph89%30.01 "HgN/A
10:15 pm73 °FPassing clouds.8 mph94%30.01 "HgN/A
10:45 pm73 °FClear.8 mph94%30.04 "Hg10 mi
11:15 pm73 °FClear.7 mph94%30.04 "Hg10 mi
11:45 pm73 °FMild.8 mph94%30.04 "Hg6 mi
Weather by CustomWeather, © 2020

See weather overview